Time;durP1;ratioP1;P1;durP2;ratioP2;P2;SDS_P1;SDS_P2;PMS_P1;PMS_P2;Temp;Humidity;BMP_temperature;BMP_pressure;BME280_temperature;BME280_humidity;BME280_pressure;Samples;Min_cycle;Max_cycle;Signal;HPM_P1;HPM_P2
2021/07/14 00:02:24;;;;;;;3.50;0.88;;;;;;;25.10;52.50;100030.97;5021233;28;20057;-71
2021/07/14 00:05:11;;;;;;;0.88;0.75;;;;;;;25.09;53.47;100034.19;5032213;28;20414;-70
2021/07/14 00:07:56;;;;;;;1.50;1.00;;;;;;;25.13;53.41;100034.91;5035616;28;20052;-72
2021/07/14 00:10:41;;;;;;;2.25;0.65;;;;;;;25.07;53.38;100033.84;5033370;28;20048;-69
2021/07/14 00:13:31;;;;;;;2.92;0.80;;;;;;;24.98;53.49;100028.06;5017881;28;20048;-69
2021/07/14 00:22:23;;;;;;;4.35;0.65;;;;;;;25.04;53.10;100026.38;5013596;28;20053;-68
2021/07/14 00:25:11;;;;;;;1.88;1.15;;;;;;;25.01;53.03;100016.06;5013334;28;20052;-69
2021/07/14 00:27:56;;;;;;;2.20;0.82;;;;;;;25.02;51.61;100012.09;5017544;28;20148;-71
2021/07/14 00:30:48;;;;;;;2.42;0.77;;;;;;;24.85;52.62;100010.41;5015605;28;20073;-68
2021/07/14 00:33:33;;;;;;;1.83;0.95;;;;;;;24.84;53.39;100017.22;5025335;28;20081;-71
2021/07/14 00:36:19;;;;;;;1.23;0.50;;;;;;;24.90;53.02;100009.94;5037061;28;20048;-71
2021/07/14 00:39:04;;;;;;;2.03;0.90;;;;;;;25.00;53.00;100003.38;5035261;28;20516;-69
2021/07/14 00:41:50;;;;;;;1.80;0.88;;;;;;;25.03;52.50;100005.31;5033369;28;20068;-69
2021/07/14 00:44:34;;;;;;;2.83;0.90;;;;;;;25.13;52.25;99999.50;5025583;28;20548;-70
2021/07/14 00:47:30;;;;;;;1.15;0.60;;;;;;;25.24;51.87;100007.63;5035199;28;20413;-70
2021/07/14 00:50:15;;;;;;;4.50;1.20;;;;;;;25.22;51.86;100010.03;5032909;28;20064;-70
2021/07/14 00:53:00;;;;;;;2.67;1.15;;;;;;;25.26;51.44;100001.59;5037036;28;20068;-70
2021/07/14 00:55:44;;;;;;;2.65;0.98;;;;;;;25.22;51.55;100001.69;5033125;28;20516;-70
2021/07/14 00:58:32;;;;;;;6.05;0.88;;;;;;;25.22;51.60;100007.25;5018964;28;20053;-71
2021/07/14 01:01:16;;;;;;;2.42;0.90;;;;;;;25.23;51.49;100011.63;5016835;28;20437;-70
2021/07/14 01:04:24;;;;;;;4.20;1.55;;;;;;;25.19;51.61;100010.13;5015189;28;20521;-69
2021/07/14 01:07:19;;;;;;;1.95;0.82;;;;;;;25.13;51.32;100013.44;5017683;28;20049;-70
2021/07/14 01:10:07;;;;;;;1.83;0.77;;;;;;;25.06;51.89;100013.56;5015775;28;20053;-71
2021/07/14 01:13:22;;;;;;;2.90;0.80;;;;;;;25.02;52.00;100010.09;5013618;28;20045;-68
2021/07/14 01:16:13;;;;;;;2.45;0.95;;;;;;;24.97;51.83;100015.38;5016268;28;20057;-70
2021/07/14 01:19:30;;;;;;;3.53;1.10;;;;;;;24.99;52.13;100012.97;5014015;28;20045;-70
2021/07/14 01:22:30;;;;;;;1.67;1.00;;;;;;;24.97;51.89;100004.25;5014710;28;20049;-70
2021/07/14 01:25:28;;;;;;;2.22;0.90;;;;;;;24.96;51.94;100002.66;5013177;28;20083;-71
2021/07/14 01:28:15;;;;;;;1.98;0.90;;;;;;;24.90;51.03;99998.81;5015999;28;20592;-71
2021/07/14 01:31:01;;;;;;;5.35;1.38;;;;;;;24.48;51.65;100006.78;5014863;28;20052;-70
2021/07/14 01:33:49;;;;;;;2.10;1.10;;;;;;;24.11;53.85;100010.66;5012773;28;20049;-69
2021/07/14 01:36:36;;;;;;;2.92;1.30;;;;;;;24.39;53.44;100005.78;5016551;28;20417;-71
2021/07/14 01:39:21;;;;;;;2.15;1.08;;;;;;;24.04;53.02;100002.44;5015271;28;20049;-71
2021/07/14 01:42:10;;;;;;;6.28;1.30;;;;;;;23.82;53.79;99993.66;5013237;28;20064;-70
2021/07/14 01:44:57;;;;;;;3.72;1.02;;;;;;;23.82;54.26;100007.56;5017638;28;20536;-70
2021/07/14 01:47:42;;;;;;;4.65;1.15;;;;;;;23.88;54.60;99999.53;5031355;28;20048;-70
2021/07/14 01:50:29;;;;;;;3.88;1.02;;;;;;;24.15;54.26;100005.00;5032846;28;20044;-71
2021/07/14 01:53:16;;;;;;;2.30;1.00;;;;;;;24.38;53.48;100007.78;5036386;28;20163;-69
2021/07/14 01:56:05;;;;;;;3.33;1.08;;;;;;;24.56;53.16;100013.00;5022707;28;20049;-71
2021/07/14 01:58:53;;;;;;;2.17;0.88;;;;;;;24.65;52.50;100011.22;5017032;28;20048;-70
2021/07/14 02:01:41;;;;;;;5.47;1.42;;;;;;;24.69;52.34;100014.72;5022221;28;20510;-70
2021/07/14 02:04:30;;;;;;;5.35;1.30;;;;;;;24.61;51.27;100012.50;5021004;28;20112;-71
2021/07/14 02:07:21;;;;;;;4.60;1.10;;;;;;;24.25;51.46;100015.19;5035387;28;20044;-70
2021/07/14 02:10:06;;;;;;;4.10;1.13;;;;;;;23.72;53.12;100014.06;5039803;28;20057;-72
2021/07/14 02:12:52;;;;;;;7.68;1.33;;;;;;;23.61;53.05;100027.34;5025458;28;20053;-71
2021/07/14 02:15:40;;;;;;;2.88;1.10;;;;;;;23.60;55.11;100034.09;5015329;28;20049;-71
2021/07/14 02:18:29;;;;;;;4.85;1.10;;;;;;;23.95;53.94;100029.19;5019932;28;20052;-71
2021/07/14 02:21:14;;;;;;;4.97;1.30;;;;;;;24.13;53.53;100036.00;5017791;28;20049;-71
2021/07/14 02:23:59;;;;;;;3.35;1.00;;;;;;;24.24;53.19;100025.50;5033509;28;20068;-69
2021/07/14 02:26:43;;;;;;;1.63;0.80;;;;;;;24.39;52.76;100020.47;5039898;28;20263;-69
2021/07/14 02:29:28;;;;;;;3.00;1.20;;;;;;;24.50;52.74;100021.06;5037824;28;20547;-70
2021/07/14 02:32:20;;;;;;;2.38;0.90;;;;;;;24.46;52.24;100019.56;5033935;28;20056;-72
2021/07/14 02:35:06;;;;;;;5.47;1.05;;;;;;;24.47;52.19;100023.91;5016083;28;20056;-69
2021/07/14 02:38:12;;;;;;;9.25;1.23;;;;;;;23.87;50.56;100018.19;5022881;28;20057;-70
2021/07/14 02:41:05;;;;;;;6.57;0.90;;;;;;;23.71;53.67;100025.63;5021140;28;20417;-69
2021/07/14 02:44:05;;;;;;;1.95;1.05;;;;;;;23.38;51.57;100013.38;5017806;28;20077;-69
2021/07/14 02:46:51;;;;;;;1.98;1.00;;;;;;;23.10;52.90;100027.69;5024741;28;20057;-71
2021/07/14 02:49:40;;;;;;;1.98;1.10;;;;;;;23.02;53.00;100029.75;5039184;28;20044;-71
2021/07/14 02:52:27;;;;;;;0.95;0.60;;;;;;;23.00;54.62;100029.38;5037588;28;20056;-69
2021/07/14 02:55:17;;;;;;;6.05;1.40;;;;;;;22.64;53.92;100025.44;5017331;28;20409;-71
2021/07/14 02:58:03;;;;;;;2.95;0.75;;;;;;;22.65;54.53;100038.09;5035488;28;20072;-71
2021/07/14 03:00:49;;;;;;;2.75;0.90;;;;;;;22.42;56.72;100045.06;5036867;28;20044;-70
2021/07/14 03:03:34;;;;;;;5.43;1.08;;;;;;;22.46;55.68;100050.56;5038574;28;20060;-68
2021/07/14 03:06:20;;;;;;;3.15;0.93;;;;;;;21.91;56.74;100053.44;5038055;28;20053;-70
2021/07/14 03:09:07;;;;;;;2.47;1.33;;;;;;;21.97;56.26;100060.94;5036956;28;20117;-68
2021/07/14 03:11:53;;;;;;;7.43;1.45;;;;;;;21.95;57.71;100065.28;5035060;28;20057;-69
2021/07/14 03:14:40;;;;;;;4.28;1.60;;;;;;;21.97;57.57;100077.53;5017115;28;20121;-70
2021/07/14 03:17:30;;;;;;;3.63;1.30;;;;;;;21.85;56.87;100083.53;5017066;28;20068;-70
2021/07/14 03:20:16;;;;;;;4.95;0.85;;;;;;;21.92;56.81;100068.84;5014941;28;20068;-70
2021/07/14 03:23:02;;;;;;;1.98;1.17;;;;;;;21.95;56.63;100068.84;5018231;28;20049;-70
2021/07/14 03:25:55;;;;;;;2.47;1.30;;;;;;;22.08;56.25;100066.38;5020905;28;20053;-69
2021/07/14 03:28:40;;;;;;;9.68;1.60;;;;;;;22.14;55.80;100073.06;5014457;28;20045;-69
2021/07/14 03:31:26;;;;;;;1.77;0.80;;;;;;;22.33;56.67;100080.00;5018114;28;20049;-69
2021/07/14 03:34:11;;;;;;;5.82;1.38;;;;;;;22.45;55.02;100076.72;5027779;28;20052;-67
2021/07/14 03:36:56;;;;;;;2.03;1.23;;;;;;;22.53;54.95;100086.53;5033954;28;20057;-68
2021/07/14 03:39:42;;;;;;;3.25;1.52;;;;;;;22.51;54.88;100083.38;5020149;28;20045;-67
2021/07/14 03:42:28;;;;;;;4.63;1.40;;;;;;;22.51;55.24;100084.16;5016575;28;20068;-70
2021/07/14 03:45:13;;;;;;;2.38;1.20;;;;;;;22.35;56.92;100083.16;5013873;28;20065;-68
2021/07/14 03:47:59;;;;;;;2.53;1.27;;;;;;;22.29;56.52;100090.34;5019834;28;20516;-69
2021/07/14 03:50:52;;;;;;;5.20;1.35;;;;;;;21.94;58.24;100099.72;5023850;28;20052;-69
2021/07/14 03:53:37;;;;;;;2.63;0.85;;;;;;;22.17;57.64;100097.16;5018974;28;20576;-68
2021/07/14 03:56:23;;;;;;;1.92;1.05;;;;;;;22.75;56.28;100106.53;5017834;28;20049;-68
2021/07/14 03:59:09;;;;;;;8.90;1.50;;;;;;;22.71;54.19;100103.00;5020571;28;20433;-70
2021/07/14 04:01:55;;;;;;;5.20;1.48;;;;;;;22.85;55.45;100098.09;5014399;28;20072;-70
2021/07/14 04:04:40;;;;;;;2.70;1.23;;;;;;;23.11;55.20;100112.47;5016138;28;20461;-71
2021/07/14 04:07:27;;;;;;;5.88;1.67;;;;;;;23.10;53.79;100108.13;5019957;28;20449;-68
2021/07/14 04:10:14;;;;;;;6.57;1.63;;;;;;;22.72;54.85;100099.81;5014933;28;20630;-69
2021/07/14 04:12:58;;;;;;;5.38;1.67;;;;;;;22.75;54.42;100092.69;5018436;28;20410;-67
2021/07/14 04:15:43;;;;;;;5.53;1.67;;;;;;;22.57;54.76;100081.72;5022361;28;20052;-68
2021/07/14 04:18:28;;;;;;;3.45;1.80;;;;;;;22.60;54.45;100086.47;5025516;28;20539;-68
2021/07/14 04:21:13;;;;;;;3.25;1.35;;;;;;;23.08;54.77;100086.34;5036797;28;20068;-68
2021/07/14 04:24:01;;;;;;;2.42;1.10;;;;;;;23.39;53.79;100090.69;5019513;28;20053;-67
2021/07/14 04:26:48;;;;;;;5.22;1.30;;;;;;;23.56;52.93;100090.88;5013655;28;20049;-68
2021/07/14 04:29:33;;;;;;;3.35;1.50;;;;;;;23.65;52.80;100108.59;5017885;28;20065;-68
2021/07/14 04:32:18;;;;;;;3.97;1.63;;;;;;;23.55;51.97;100112.31;5015561;28;20508;-70
2021/07/14 04:35:03;;;;;;;4.78;1.73;;;;;;;23.45;52.57;100102.13;5014215;28;20049;-70
2021/07/14 04:37:50;;;;;;;3.45;1.55;;;;;;;23.31;53.05;100102.31;5018868;28;20061;-70
2021/07/14 04:40:35;;;;;;;3.88;1.20;;;;;;;23.34;53.26;100109.78;5035885;28;20048;-70
2021/07/14 04:43:20;;;;;;;4.30;1.58;;;;;;;23.06;53.40;100104.59;5032160;28;20072;-70
2021/07/14 04:46:05;;;;;;;4.75;1.38;;;;;;;23.08;54.46;100094.66;5035776;28;20056;-70
2021/07/14 04:48:50;;;;;;;3.15;1.42;;;;;;;23.30;54.27;100104.28;5055086;28;20060;-71
2021/07/14 04:51:35;;;;;;;4.38;1.00;;;;;;;23.47;53.68;100102.47;5040946;28;20048;-69
2021/07/14 04:54:20;;;;;;;5.00;1.10;;;;;;;23.62;52.98;100105.88;5033791;28;20508;-68
2021/07/14 04:57:06;;;;;;;2.58;1.35;;;;;;;23.65;52.98;100093.91;5035538;28;20060;-69
2021/07/14 04:59:51;;;;;;;18.63;1.35;;;;;;;23.59;52.67;100090.81;5033711;28;20393;-70
2021/07/14 05:02:36;;;;;;;36.88;3.88;;;;;;;23.70;52.63;100099.00;5012386;28;20057;-69
2021/07/14 05:05:21;;;;;;;9.70;1.77;;;;;;;23.75;52.45;100096.53;5013001;28;20052;-69
2021/07/14 05:08:06;;;;;;;6.03;1.85;;;;;;;23.71;52.68;100103.34;5014380;28;20056;-68
2021/07/14 05:10:51;;;;;;;6.30;1.75;;;;;;;23.67;52.83;100114.50;5012603;28;20041;-69
2021/07/14 05:13:36;;;;;;;6.15;1.42;;;;;;;23.61;53.15;100127.28;5020801;28;20060;-68
2021/07/14 05:16:21;;;;;;;4.47;1.58;;;;;;;23.52;53.46;100121.44;5020536;28;20060;-70
2021/07/14 05:19:06;;;;;;;6.68;2.13;;;;;;;23.14;54.23;100114.41;5014822;28;20052;-67
2021/07/14 05:21:51;;;;;;;3.85;1.45;;;;;;;23.26;54.42;100122.19;5033903;28;20508;-69
2021/07/14 05:24:36;;;;;;;3.78;1.75;;;;;;;23.37;54.02;100133.91;5030217;28;20416;-69
2021/07/14 05:27:21;;;;;;;6.47;1.67;;;;;;;23.44;54.24;100133.84;5018864;28;20049;-72
2021/07/14 05:30:08;;;;;;;5.03;1.63;;;;;;;23.16;54.85;100134.19;5015921;28;20076;-70
2021/07/14 05:32:53;;;;;;;5.75;1.42;;;;;;;23.22;55.29;100126.97;5036448;28;20677;-71
2021/07/14 05:35:38;;;;;;;2.22;1.58;;;;;;;23.31;54.84;100136.38;5014333;28;20069;-69
2021/07/14 05:38:23;;;;;;;7.57;1.60;;;;;;;23.24;55.19;100132.91;5023161;28;20064;-70
2021/07/14 05:41:09;;;;;;;24.67;3.15;;;;;;;23.27;55.32;100134.84;5013883;28;20053;-70
2021/07/14 05:43:55;;;;;;;60.03;9.48;;;;;;;23.59;54.79;100129.69;5016631;28;20414;-71
2021/07/14 05:46:40;;;;;;;56.80;7.18;;;;;;;23.74;54.60;100133.06;5015298;28;20040;-70
2021/07/14 05:49:25;;;;;;;26.52;3.92;;;;;;;23.84;54.08;100134.88;5029577;28;20064;-70
2021/07/14 05:52:13;;;;;;;32.70;4.75;;;;;;;23.89;53.62;100137.19;5016043;28;20129;-71
2021/07/14 05:54:57;;;;;;;6.95;2.88;;;;;;;23.79;52.79;100144.47;5013599;28;20413;-72
2021/07/14 05:57:42;;;;;;;8.60;2.92;;;;;;;23.65;53.12;100150.22;5021156;28;20112;-67
2021/07/14 06:00:29;;;;;;;11.63;3.00;;;;;;;23.34;54.50;100151.41;5018534;28;20049;-68
2021/07/14 06:03:14;;;;;;;7.68;3.10;;;;;;;23.03;55.76;100134.72;5015903;28;20041;-70
2021/07/14 06:05:59;;;;;;;66.93;13.05;;;;;;;23.34;56.04;100143.09;5013571;28;20053;-67
2021/07/14 06:08:44;;;;;;;12.57;3.97;;;;;;;23.39;55.09;100137.06;5012529;28;20042;-66
2021/07/14 06:11:29;;;;;;;31.33;5.07;;;;;;;23.17;55.65;100141.28;5015359;28;20057;-68
2021/07/14 06:14:14;;;;;;;5.90;2.50;;;;;;;23.38;56.22;100152.13;5030754;28;20040;-67
2021/07/14 06:16:59;;;;;;;8.82;2.35;;;;;;;23.59;55.79;100135.25;5039777;28;20134;-66
2021/07/14 06:19:44;;;;;;;7.35;2.50;;;;;;;23.76;55.61;100147.31;5034533;28;20064;-66
2021/07/14 06:22:29;;;;;;;16.17;1.80;;;;;;;23.84;55.31;100140.44;5043582;28;20052;-68
2021/07/14 06:25:16;;;;;;;6.22;2.60;;;;;;;23.95;55.08;100145.84;5022413;28;20405;-67
2021/07/14 06:28:02;;;;;;;6.18;1.80;;;;;;;24.01;55.05;100138.59;5019669;28;20048;-68
2021/07/14 06:30:47;;;;;;;8.52;1.75;;;;;;;24.07;54.75;100148.03;5027300;28;20044;-67
2021/07/14 06:33:34;;;;;;;7.10;2.60;;;;;;;24.08;54.75;100157.94;5014094;28;20048;-67
2021/07/14 06:36:19;;;;;;;5.80;2.13;;;;;;;24.07;54.79;100162.72;5015221;28;20075;-68
2021/07/14 06:39:04;;;;;;;10.23;2.40;;;;;;;23.86;54.21;100165.81;5013242;28;20048;-66
2021/07/14 06:41:50;;;;;;;7.18;2.60;;;;;;;23.47;55.21;100160.00;5014668;28;20061;-66
2021/07/14 06:44:37;;;;;;;8.70;3.50;;;;;;;23.19;56.80;100161.91;5014906;28;20045;-67
2021/07/14 06:47:21;;;;;;;7.72;2.95;;;;;;;23.08;57.71;100168.75;5018529;28;20052;-68
2021/07/14 06:50:10;;;;;;;12.65;3.05;;;;;;;22.90;58.78;100180.06;5020192;28;20068;-67
2021/07/14 06:52:55;;;;;;;4.97;3.00;;;;;;;22.80;58.06;100178.97;5034872;28;20048;-67
2021/07/14 06:55:40;;;;;;;15.73;3.05;;;;;;;22.78;58.29;100186.88;5038315;28;20052;-66
2021/07/14 06:58:29;;;;;;;7.28;2.38;;;;;;;22.82;58.20;100192.41;5035938;28;20417;-67
2021/07/14 07:01:15;;;;;;;5.25;2.05;;;;;;;23.25;57.77;100184.41;5031631;28;20535;-66
2021/07/14 07:04:00;;;;;;;5.10;3.00;;;;;;;23.27;58.83;100188.34;5035378;28;20121;-67
2021/07/14 07:06:45;;;;;;;6.07;2.13;;;;;;;23.30;58.44;100189.50;5016486;28;20057;-68
2021/07/14 07:09:30;;;;;;;3.47;1.70;;;;;;;23.55;57.06;100195.59;5015290;28;20049;-67
2021/07/14 07:12:15;;;;;;;5.60;2.13;;;;;;;23.76;56.62;100195.31;5018360;28;20049;-68
2021/07/14 07:15:02;;;;;;;9.98;2.95;;;;;;;23.90;56.17;100199.09;5015979;28;20045;-68
2021/07/14 07:17:47;;;;;;;7.65;2.20;;;;;;;24.05;55.79;100203.22;5014729;28;20072;-66
2021/07/14 07:20:32;;;;;;;2.92;1.67;;;;;;;24.15;55.23;100193.94;5018796;28;20037;-67
2021/07/14 07:23:17;;;;;;;5.95;2.03;;;;;;;24.20;55.20;100207.41;5016580;28;20524;-67
2021/07/14 07:26:04;;;;;;;9.60;2.60;;;;;;;24.30;54.97;100212.00;5015000;28;20056;-67
2021/07/14 07:28:57;;;;;;;9.00;1.88;;;;;;;24.32;54.83;100209.59;5018632;28;20052;-67
2021/07/14 07:31:42;;;;;;;6.25;2.10;;;;;;;24.37;54.44;100205.56;5021521;28;20418;-69
2021/07/14 07:34:27;;;;;;;8.15;2.55;;;;;;;24.45;54.24;100218.13;5033061;28;20053;-68
2021/07/14 07:37:11;;;;;;;9.98;2.53;;;;;;;24.38;54.34;100219.00;5036255;28;20052;-67
2021/07/14 07:39:58;;;;;;;11.10;2.80;;;;;;;24.22;54.88;100216.13;5034761;28;20064;-67
2021/07/14 07:42:43;;;;;;;11.55;3.60;;;;;;;24.15;55.05;100214.19;5040355;28;20053;-67
2021/07/14 07:45:27;;;;;;;10.13;2.90;;;;;;;24.21;55.01;100220.09;5034062;28;20057;-67
2021/07/14 07:48:12;;;;;;;9.02;3.53;;;;;;;24.21;55.14;100225.66;5033494;28;20048;-68
2021/07/14 07:50:58;;;;;;;10.15;3.58;;;;;;;24.10;55.63;100224.97;5039062;28;20052;-67
2021/07/14 07:53:43;;;;;;;7.18;3.03;;;;;;;24.14;55.49;100229.28;5036957;28;20409;-67
2021/07/14 07:56:31;;;;;;;5.47;2.80;;;;;;;24.24;55.36;100235.91;5035163;28;20064;-67
2021/07/14 07:59:16;;;;;;;7.03;2.38;;;;;;;24.36;55.24;100227.00;5031969;28;20527;-65
2021/07/14 08:02:02;;;;;;;4.35;1.70;;;;;;;24.27;54.91;100235.09;5035375;28;20052;-66
2021/07/14 08:04:47;;;;;;;4.20;1.90;;;;;;;24.20;55.04;100233.19;5029449;28;20048;-68
2021/07/14 08:07:33;;;;;;;4.05;1.70;;;;;;;24.33;55.31;100233.38;5017341;28;20053;-67
2021/07/14 08:10:18;;;;;;;9.20;2.03;;;;;;;24.36;55.36;100243.69;5015258;28;20409;-66
2021/07/14 08:13:04;;;;;;;5.93;1.40;;;;;;;24.37;55.21;100250.81;5013681;28;20060;-68
2021/07/14 08:15:49;;;;;;;1.92;1.17;;;;;;;24.45;55.01;100254.25;5017374;28;20046;-68
2021/07/14 08:18:34;;;;;;;2.03;1.27;;;;;;;24.45;54.76;100255.06;5015879;28;20053;-66
2021/07/14 08:21:20;;;;;;;7.13;3.22;;;;;;;24.45;54.99;100260.63;5013272;28;20037;-67
2021/07/14 08:24:05;;;;;;;5.20;1.42;;;;;;;24.51;54.80;100269.28;5017405;28;20057;-68
2021/07/14 08:26:49;;;;;;;3.50;1.40;;;;;;;24.50;54.78;100271.25;5015356;28;20048;-66
2021/07/14 08:29:34;;;;;;;7.93;1.90;;;;;;;24.54;54.98;100272.00;5028932;28;20052;-66
2021/07/14 08:32:19;;;;;;;9.38;2.30;;;;;;;24.53;55.57;100275.22;5036596;28;20064;-68
2021/07/14 08:35:07;;;;;;;8.40;2.00;;;;;;;24.54;55.58;100280.31;5028777;28;20108;-69
2021/07/14 08:37:52;;;;;;;5.28;1.73;;;;;;;24.60;55.39;100283.41;5013803;28;20041;-66
2021/07/14 08:40:38;;;;;;;6.55;2.00;;;;;;;24.74;55.00;100280.41;5030259;28;20053;-69
2021/07/14 08:43:29;;;;;;;5.65;1.90;;;;;;;24.88;54.74;100285.00;5027375;28;20036;-69
2021/07/14 08:46:14;;;;;;;4.20;2.00;;;;;;;24.87;54.90;100292.56;5029889;28;20143;-68
2021/07/14 08:49:03;;;;;;;7.20;2.25;;;;;;;24.90;55.32;100300.03;5033848;28;20060;-68
2021/07/14 08:51:51;;;;;;;6.05;2.50;;;;;;;24.96;55.68;100297.56;5025755;28;20053;-68
2021/07/14 08:54:37;;;;;;;9.13;2.95;;;;;;;24.97;56.09;100302.72;5015560;28;20048;-69
2021/07/14 08:57:23;;;;;;;12.70;3.67;;;;;;;24.98;56.40;100306.28;5022258;28;20052;-68
2021/07/14 09:00:11;;;;;;;9.70;2.22;;;;;;;24.90;56.93;100304.81;5026035;28;20053;-68
2021/07/14 09:02:56;;;;;;;9.25;3.33;;;;;;;25.02;57.09;100301.44;5016045;28;20057;-66
2021/07/14 09:05:41;;;;;;;9.05;3.50;;;;;;;24.83;58.18;100310.50;5018580;28;20121;-67
2021/07/14 09:08:26;;;;;;;4.45;3.30;;;;;;;24.96;58.64;100309.50;5019087;28;20124;-67
2021/07/14 09:11:11;;;;;;;9.07;4.18;;;;;;;24.32;60.46;100314.44;5018989;28;20516;-68
2021/07/14 09:13:56;;;;;;;8.88;4.57;;;;;;;24.46;60.00;100319.78;5017084;28;20583;-66
2021/07/14 09:16:42;;;;;;;8.80;4.50;;;;;;;24.38;60.09;100319.09;5019025;28;20049;-66
2021/07/14 09:19:31;;;;;;;11.23;4.20;;;;;;;24.42;59.99;100311.50;5018822;28;20057;-66
2021/07/14 09:22:20;;;;;;;9.85;4.57;;;;;;;24.41;59.88;100318.25;5013285;28;20048;-65
2021/07/14 09:25:12;;;;;;;14.93;5.28;;;;;;;24.40;59.91;100310.34;5012139;28;20054;-65
2021/07/14 09:28:03;;;;;;;19.98;5.22;;;;;;;24.53;59.48;100309.34;5052014;28;20049;-66
2021/07/14 09:30:56;;;;;;;15.73;4.93;;;;;;;24.65;59.83;100305.19;5058431;28;20056;-67
2021/07/14 09:33:43;;;;;;;9.05;4.15;;;;;;;24.74;59.27;100307.47;5056004;28;20048;-66
2021/07/14 09:36:36;;;;;;;8.65;3.70;;;;;;;24.80;58.31;100308.53;5058451;28;20052;-66
2021/07/14 09:39:33;;;;;;;9.80;4.20;;;;;;;24.77;56.50;100301.03;5058356;28;20051;-67
2021/07/14 09:42:19;;;;;;;8.52;3.63;;;;;;;24.66;56.42;100307.56;5058017;28;20044;-68
2021/07/14 09:45:05;;;;;;;12.80;2.90;;;;;;;24.67;55.91;100311.91;5053211;28;20052;-66
2021/07/14 09:47:57;;;;;;;10.15;3.97;;;;;;;24.78;54.66;100319.31;5058265;28;20048;-66
2021/07/14 09:50:49;;;;;;;17.92;3.58;;;;;;;24.81;54.75;100319.25;5058440;28;20052;-67
2021/07/14 09:53:35;;;;;;;10.85;3.83;;;;;;;24.83;56.06;100316.84;5057463;28;20527;-67
2021/07/14 09:56:26;;;;;;;10.13;4.13;;;;;;;24.75;55.73;100322.91;5058302;28;20504;-68
2021/07/14 09:59:12;;;;;;;12.27;4.28;;;;;;;24.63;55.75;100332.66;5058280;28;20044;-67
2021/07/14 10:01:57;;;;;;;10.27;3.53;;;;;;;24.48;55.65;100323.69;5058201;28;20120;-67
2021/07/14 10:04:44;;;;;;;7.80;2.97;;;;;;;24.43;53.26;100335.28;5053463;28;20055;-68
2021/07/14 10:07:30;;;;;;;7.00;2.50;;;;;;;24.37;52.91;100328.66;5058290;28;20048;-67
2021/07/14 10:10:15;;;;;;;7.07;2.53;;;;;;;24.37;52.66;100333.41;5055428;28;20060;-67
2021/07/14 10:13:07;;;;;;;6.43;1.73;;;;;;;24.22;51.41;100339.19;5058188;28;20051;-66
2021/07/14 10:16:04;;;;;;;4.82;1.60;;;;;;;24.18;51.21;100343.19;5058306;28;20432;-67
2021/07/14 10:19:08;;;;;;;3.88;1.70;;;;;;;24.21;51.90;100345.16;5062023;28;20048;-66
2021/07/14 10:21:53;;;;;;;5.10;1.90;;;;;;;23.96;52.74;100347.41;5057542;28;20064;-67
2021/07/14 10:24:39;;;;;;;6.13;2.05;;;;;;;23.87;52.52;100345.91;5058025;28;20063;-66
2021/07/14 10:27:24;;;;;;;6.03;1.13;;;;;;;23.80;50.89;100357.13;5061796;28;20515;-66
2021/07/14 10:30:10;;;;;;;6.38;1.65;;;;;;;23.81;51.27;100353.13;5061632;28;20048;-65
2021/07/14 10:32:56;;;;;;;7.00;2.38;;;;;;;23.97;49.66;100355.34;5061391;28;20412;-68
2021/07/14 10:35:44;;;;;;;6.53;1.00;;;;;;;24.04;48.34;100360.00;5061835;28;20064;-66
2021/07/14 10:38:30;;;;;;;1.55;0.80;;;;;;;24.15;48.60;100366.22;5061694;28;20055;-67
2021/07/14 10:41:15;;;;;;;5.03;1.50;;;;;;;24.19;48.65;100369.78;5053254;28;20040;-67
2021/07/14 10:44:01;;;;;;;4.70;1.10;;;;;;;24.18;47.28;100370.97;5034893;28;20052;-66
2021/07/14 10:46:46;;;;;;;4.07;0.77;;;;;;;24.16;46.16;100365.03;5041424;28;20044;-67
2021/07/14 10:49:32;;;;;;;5.75;0.80;;;;;;;24.27;46.44;100363.72;5041513;28;20063;-66
2021/07/14 10:52:18;;;;;;;5.28;1.10;;;;;;;24.34;45.15;100362.03;5041422;28;20109;-66
2021/07/14 10:55:03;;;;;;;6.95;1.13;;;;;;;24.45;44.85;100368.25;5036380;28;20053;-67
2021/07/14 10:57:51;;;;;;;2.78;0.60;;;;;;;24.49;44.30;100369.78;5040365;28;20056;-67
2021/07/14 11:00:43;;;;;;;3.47;1.20;;;;;;;24.36;43.86;100354.06;5041327;28;20048;-67
2021/07/14 11:03:31;;;;;;;3.65;1.33;;;;;;;24.35;43.61;100363.63;5040415;28;20044;-67
2021/07/14 11:06:16;;;;;;;4.50;0.80;;;;;;;24.42;44.33;100357.97;5041228;28;20437;-66
2021/07/14 11:09:00;;;;;;;3.67;0.90;;;;;;;24.33;43.69;100371.59;5043705;28;20044;-65
2021/07/14 11:11:57;;;;;;;38.15;3.38;;;;;;;24.28;43.83;100358.94;5040433;28;20056;-65
2021/07/14 11:14:51;;;;;;;3.40;0.90;;;;;;;24.25;42.75;100365.34;5052333;28;20044;-67
2021/07/14 11:17:36;;;;;;;3.58;0.88;;;;;;;24.21;42.21;100368.16;5060940;28;20064;-65
2021/07/14 11:20:21;;;;;;;2.40;1.35;;;;;;;24.29;42.50;100366.06;5054171;28;20052;-64
2021/07/14 11:23:17;;;;;;;1.58;0.95;;;;;;;24.29;43.10;100361.31;5049326;28;20615;-65
2021/07/14 11:26:03;;;;;;;3.58;0.55;;;;;;;24.33;42.95;100366.03;5051440;28;20068;-65
2021/07/14 11:29:12;;;;;;;2.38;0.90;;;;;;;24.41;42.17;100364.72;5055315;28;20055;-66
2021/07/14 11:31:57;;;;;;;1.75;0.55;;;;;;;24.40;42.12;100366.72;5053063;28;20420;-65
2021/07/14 11:34:57;;;;;;;4.47;1.48;;;;;;;24.29;41.04;100349.41;5049836;28;20048;-66
2021/07/14 11:37:50;;;;;;;6.30;0.85;;;;;;;24.29;41.93;100357.72;5020830;28;20068;-65
2021/07/14 11:40:39;;;;;;;2.30;0.75;;;;;;;24.40;41.47;100354.81;5036613;28;20040;-66
2021/07/14 11:43:26;;;;;;;5.32;0.90;;;;;;;24.46;41.42;100353.94;5042078;28;20041;-65
2021/07/14 11:46:15;;;;;;;4.50;0.88;;;;;;;24.48;41.60;100357.06;5041980;28;20060;-65
2021/07/14 11:49:06;;;;;;;3.42;0.95;;;;;;;24.53;41.29;100353.81;5060288;28;20535;-65
2021/07/14 11:51:51;;;;;;;3.80;0.65;;;;;;;24.62;40.85;100340.22;5053306;28;20048;-66
2021/07/14 11:54:36;;;;;;;1.85;0.70;;;;;;;24.75;41.32;100345.16;5049085;28;20044;-65
2021/07/14 11:57:38;;;;;;;2.95;0.50;;;;;;;24.80;40.56;100333.56;5049016;28;20056;-65
2021/07/14 12:00:34;;;;;;;2.38;0.45;;;;;;;24.75;39.20;100339.59;5041600;28;20049;-66
2021/07/14 12:03:21;;;;;;;2.75;0.47;;;;;;;24.79;37.00;100346.69;5058882;28;20059;-65
2021/07/14 12:06:34;;;;;;;1.30;0.50;;;;;;;24.82;37.08;100351.44;5060059;28;20051;-65
2021/07/14 12:09:18;;;;;;;2.55;0.50;;;;;;;24.81;37.43;100351.84;5059988;28;20055;-68
2021/07/14 12:12:05;;;;;;;;;;;;;;;24.84;36.22;100353.78;5045145;28;20048;-67
2021/07/14 12:14:52;;;;;;;2.20;0.82;;;;;;;24.90;37.12;100357.69;5043096;28;20300;-65
2021/07/14 12:17:37;;;;;;;4.10;0.77;;;;;;;24.98;37.14;100354.38;5043118;28;20048;-65
2021/07/14 12:20:22;;;;;;;1.33;0.55;;;;;;;24.97;36.87;100350.03;5037901;28;20397;-65
2021/07/14 12:23:15;;;;;;;0.70;0.30;;;;;;;24.99;36.17;100360.75;5041032;28;20036;-67
2021/07/14 12:26:03;;;;;;;0.75;0.30;;;;;;;25.05;36.69;100361.81;5038909;28;20056;-67
2021/07/14 12:28:48;;;;;;;0.50;0.28;;;;;;;25.00;36.72;100365.06;5031821;28;20247;-67
2021/07/14 12:31:33;;;;;;;0.75;0.30;;;;;;;25.02;36.98;100369.03;5038816;28;20072;-67
2021/07/14 12:34:22;;;;;;;11.52;0.40;;;;;;;25.08;35.48;100369.34;5035368;28;20048;-68
2021/07/14 12:37:07;;;;;;;2.40;0.30;;;;;;;25.21;34.70;100369.50;5041192;28;20060;-67
2021/07/14 12:39:54;;;;;;;3.42;0.40;;;;;;;25.24;35.11;100366.69;5037581;28;20048;-69
2021/07/14 12:42:43;;;;;;;3.22;0.50;;;;;;;25.24;34.42;100366.69;5038093;28;20060;-68
2021/07/14 12:45:33;;;;;;;1.55;0.40;;;;;;;25.31;35.12;100372.09;5041406;28;20048;-67
2021/07/14 12:48:21;;;;;;;2.75;0.40;;;;;;;25.43;35.29;100379.06;5040511;28;20441;-69
2021/07/14 12:51:06;;;;;;;2.10;0.70;;;;;;;25.48;34.44;100378.59;5037372;28;20513;-69
2021/07/14 12:53:57;;;;;;;1.00;0.30;;;;;;;25.58;34.47;100365.72;5043457;28;20036;-67
2021/07/14 12:56:41;;;;;;;1.13;0.30;;;;;;;25.57;35.28;100369.69;5045622;28;20040;-68
2021/07/14 12:59:27;;;;;;;4.28;0.50;;;;;;;25.59;34.44;100373.66;5036690;28;20064;-67
2021/07/14 13:02:16;;;;;;;0.68;0.30;;;;;;;25.52;35.13;100373.72;5045774;28;20052;-68
2021/07/14 13:05:01;;;;;;;0.57;0.30;;;;;;;25.53;34.43;100373.31;5045096;28;20405;-67